Aeroporto :
LOGIN :

Iscrizione | Disclaimer

   EN    FR    IT 

 










Sommario :    VFR   VFR Marginale   IFR   IFR Intensivo   IFR Molto Intensivo
Visibilità : 
Base nubi : 
>= 8 km
>= 3000ft
5 / 8 km
1000 / 3000 ft
1500m / 5 km
500 / 1000 ft
800 / 1500m
200 / 500 ft
< 800m
< 200 ft
Simboli :   Temporali  Nebbia  Neve Forte  Precipitazioni Forti  Vento > 20 kt
SIGMETs :   Varie  Temporali  Ghiacco  Turbolenza  Onda orograficha  Ceneri Vulcaniche






- Altitudine del aeroporto : 423 ft
- Codice IATA : PIS


LFBI - Poitiers

ULTIMO METAR :
  • 021430Z AUTO 31007KT 280V340 9999 OVC039 09/01 Q1035 NOSIG

METARs OBSOLETI :
  • 021400Z AUTO 30006KT 9999 OVC039 09/02 Q1035 NOSIG
  • 021330Z AUTO 31007KT 9999 OVC039 09/01 Q1035 NOSIG
  • 021300Z AUTO 31006KT 280V340 9999 OVC038 09/02 Q1035 NOSIG
  • 021230Z AUTO 31007KT 9999 OVC040 10/02 Q1035 NOSIG
  • 021200Z AUTO 30007KT 9999 OVC041 10/03 Q1035 NOSIG
  • 021130Z AUTO 30006KT 9999 OVC041 09/03 Q1035 NOSIG

TAF TAF LFBI
Valido dal 02 a 12 ore il 03 a 12 ore UTC


021100Z 0212/0312 VRB03KT 9999 BKN040



MetMap, La meteo Aeronautica in un colpo d'occhio ! - Copyright ORBIFLY Dicembre 2007 - Disclaimer

ORBIFLY MET'MAP TEAM :

Programmazione e sviluppo : Alexandra Zaïnal
Concezione : Baudouin d'Aumeries
Supporto tecnico e logistico : Manuel Goepfert
Aiuto : Marc-Olivier Méhu
Aiuto per la traduzione : Arnaldo La Scala




FONTI E CREDITI :

   NOAA